sensor_id;sensor_type;location;lat;lon;timestamp;P1;durP1;ratioP1;P2;durP2;ratioP2
9712;SDS011;4895;50.926;6.870;2022-11-15T00:02:17;19.23;;;11.40;;
9712;SDS011;4895;50.926;6.870;2022-11-15T00:04:43;19.67;;;11.40;;
9712;SDS011;4895;50.926;6.870;2022-11-15T00:07:08;22.87;;;10.03;;
9712;SDS011;4895;50.926;6.870;2022-11-15T00:09:33;13.90;;;10.27;;
9712;SDS011;4895;50.926;6.870;2022-11-15T00:11:59;17.00;;;11.20;;
9712;SDS011;4895;50.926;6.870;2022-11-15T00:14:24;15.63;;;9.80;;
9712;SDS011;4895;50.926;6.870;2022-11-15T00:16:49;16.10;;;10.20;;
9712;SDS011;4895;50.926;6.870;2022-11-15T00:19:15;19.87;;;11.00;;
9712;SDS011;4895;50.926;6.870;2022-11-15T00:21:40;17.83;;;10.40;;
9712;SDS011;4895;50.926;6.870;2022-11-15T00:24:05;16.63;;;10.20;;
9712;SDS011;4895;50.926;6.870;2022-11-15T00:26:31;16.13;;;10.10;;
9712;SDS011;4895;50.926;6.870;2022-11-15T00:28:56;14.07;;;10.00;;
9712;SDS011;4895;50.926;6.870;2022-11-15T00:31:22;15.83;;;10.40;;
9712;SDS011;4895;50.926;6.870;2022-11-15T00:33:47;19.30;;;10.10;;
9712;SDS011;4895;50.926;6.870;2022-11-15T00:36:12;19.03;;;10.00;;
9712;SDS011;4895;50.926;6.870;2022-11-15T00:38:38;16.03;;;9.83;;
9712;SDS011;4895;50.926;6.870;2022-11-15T00:41:05;14.30;;;9.50;;
9712;SDS011;4895;50.926;6.870;2022-11-15T00:43:31;17.00;;;10.23;;
9712;SDS011;4895;50.926;6.870;2022-11-15T00:45:57;16.90;;;11.07;;
9712;SDS011;4895;50.926;6.870;2022-11-15T00:48:22;19.50;;;10.50;;
9712;SDS011;4895;50.926;6.870;2022-11-15T00:50:48;22.70;;;10.10;;
9712;SDS011;4895;50.926;6.870;2022-11-15T00:53:14;18.30;;;9.53;;
9712;SDS011;4895;50.926;6.870;2022-11-15T00:55:39;17.83;;;10.73;;
9712;SDS011;4895;50.926;6.870;2022-11-15T00:58:04;21.53;;;11.63;;
9712;SDS011;4895;50.926;6.870;2022-11-15T01:00:30;19.30;;;11.60;;
9712;SDS011;4895;50.926;6.870;2022-11-15T01:02:55;21.77;;;10.90;;
9712;SDS011;4895;50.926;6.870;2022-11-15T01:05:20;17.10;;;10.77;;
9712;SDS011;4895;50.926;6.870;2022-11-15T01:07:46;20.87;;;11.37;;
9712;SDS011;4895;50.926;6.870;2022-11-15T01:10:11;18.13;;;10.67;;
9712;SDS011;4895;50.926;6.870;2022-11-15T01:12:36;17.80;;;11.63;;
9712;SDS011;4895;50.926;6.870;2022-11-15T01:15:02;16.63;;;9.77;;
9712;SDS011;4895;50.926;6.870;2022-11-15T01:17:28;20.27;;;11.17;;
9712;SDS011;4895;50.926;6.870;2022-11-15T01:19:55;17.03;;;10.53;;
9712;SDS011;4895;50.926;6.870;2022-11-15T01:22:20;15.50;;;9.60;;
9712;SDS011;4895;50.926;6.870;2022-11-15T01:24:45;16.37;;;10.10;;
9712;SDS011;4895;50.926;6.870;2022-11-15T01:27:11;17.57;;;10.30;;
9712;SDS011;4895;50.926;6.870;2022-11-15T01:29:36;19.10;;;10.20;;
9712;SDS011;4895;50.926;6.870;2022-11-15T01:32:01;19.30;;;11.23;;
9712;SDS011;4895;50.926;6.870;2022-11-15T01:34:27;14.93;;;9.57;;
9712;SDS011;4895;50.926;6.870;2022-11-15T01:36:52;13.40;;;9.70;;
9712;SDS011;4895;50.926;6.870;2022-11-15T01:39:18;19.43;;;11.33;;
9712;SDS011;4895;50.926;6.870;2022-11-15T01:41:43;20.20;;;10.80;;
9712;SDS011;4895;50.926;6.870;2022-11-15T01:46:56;16.80;;;10.07;;
9712;SDS011;4895;50.926;6.870;2022-11-15T01:49:22;19.43;;;10.70;;
9712;SDS011;4895;50.926;6.870;2022-11-15T01:51:48;19.43;;;10.87;;
9712;SDS011;4895;50.926;6.870;2022-11-15T01:54:15;24.07;;;10.10;;
9712;SDS011;4895;50.926;6.870;2022-11-15T01:56:47;17.33;;;9.93;;
9712;SDS011;4895;50.926;6.870;2022-11-15T01:59:16;17.57;;;9.77;;
9712;SDS011;4895;50.926;6.870;2022-11-15T02:01:41;17.00;;;9.33;;
9712;SDS011;4895;50.926;6.870;2022-11-15T02:04:15;15.50;;;9.50;;
9712;SDS011;4895;50.926;6.870;2022-11-15T02:06:42;20.70;;;9.97;;
9712;SDS011;4895;50.926;6.870;2022-11-15T02:09:08;13.20;;;9.03;;
9712;SDS011;4895;50.926;6.870;2022-11-15T02:11:34;14.80;;;9.80;;
9712;SDS011;4895;50.926;6.870;2022-11-15T02:13:59;17.93;;;10.20;;
9712;SDS011;4895;50.926;6.870;2022-11-15T02:22:04;13.77;;;9.20;;
9712;SDS011;4895;50.926;6.870;2022-11-15T02:30:32;16.17;;;10.43;;
9712;SDS011;4895;50.926;6.870;2022-11-15T02:33:41;14.60;;;9.90;;
9712;SDS011;4895;50.926;6.870;2022-11-15T02:36:11;11.70;;;8.67;;
9712;SDS011;4895;50.926;6.870;2022-11-15T02:38:41;17.20;;;9.70;;
9712;SDS011;4895;50.926;6.870;2022-11-15T02:41:16;15.43;;;9.40;;
9712;SDS011;4895;50.926;6.870;2022-11-15T02:43:47;17.80;;;9.33;;
9712;SDS011;4895;50.926;6.870;2022-11-15T02:46:26;12.37;;;8.70;;
9712;SDS011;4895;50.926;6.870;2022-11-15T02:49:14;15.93;;;8.87;;
9712;SDS011;4895;50.926;6.870;2022-11-15T02:51:39;24.47;;;9.97;;
9712;SDS011;4895;50.926;6.870;2022-11-15T02:54:06;13.77;;;10.50;;
9712;SDS011;4895;50.926;6.870;2022-11-15T02:56:31;20.10;;;9.53;;
9712;SDS011;4895;50.926;6.870;2022-11-15T03:07:16;18.53;;;11.20;;
9712;SDS011;4895;50.926;6.870;2022-11-15T03:09:52;18.40;;;10.30;;
9712;SDS011;4895;50.926;6.870;2022-11-15T03:15:00;18.67;;;9.83;;
9712;SDS011;4895;50.926;6.870;2022-11-15T03:17:32;15.10;;;9.73;;
9712;SDS011;4895;50.926;6.870;2022-11-15T03:20:01;26.20;;;11.07;;
9712;SDS011;4895;50.926;6.870;2022-11-15T03:22:29;14.97;;;10.40;;
9712;SDS011;4895;50.926;6.870;2022-11-15T03:24:58;13.60;;;9.20;;
9712;SDS011;4895;50.926;6.870;2022-11-15T03:27:27;17.10;;;10.20;;
9712;SDS011;4895;50.926;6.870;2022-11-15T03:30:04;16.37;;;9.17;;
9712;SDS011;4895;50.926;6.870;2022-11-15T03:32:31;16.43;;;10.47;;
9712;SDS011;4895;50.926;6.870;2022-11-15T03:35:04;18.10;;;10.20;;
9712;SDS011;4895;50.926;6.870;2022-11-15T03:40:09;20.37;;;9.40;;
9712;SDS011;4895;50.926;6.870;2022-11-15T03:42:48;15.80;;;9.57;;
9712;SDS011;4895;50.926;6.870;2022-11-15T03:45:58;13.60;;;8.40;;
9712;SDS011;4895;50.926;6.870;2022-11-15T03:48:23;16.23;;;7.87;;
9712;SDS011;4895;50.926;6.870;2022-11-15T03:50:50;12.07;;;7.67;;
9712;SDS011;4895;50.926;6.870;2022-11-15T03:53:15;15.13;;;8.57;;
9712;SDS011;4895;50.926;6.870;2022-11-15T03:55:41;10.50;;;7.80;;
9712;SDS011;4895;50.926;6.870;2022-11-15T03:58:07;12.37;;;8.37;;
9712;SDS011;4895;50.926;6.870;2022-11-15T04:00:32;15.50;;;8.80;;
9712;SDS011;4895;50.926;6.870;2022-11-15T04:02:58;12.73;;;8.00;;
9712;SDS011;4895;50.926;6.870;2022-11-15T04:05:23;15.40;;;8.23;;
9712;SDS011;4895;50.926;6.870;2022-11-15T04:07:49;12.60;;;8.17;;
9712;SDS011;4895;50.926;6.870;2022-11-15T04:10:14;14.93;;;7.63;;
9712;SDS011;4895;50.926;6.870;2022-11-15T04:12:41;14.63;;;8.00;;
9712;SDS011;4895;50.926;6.870;2022-11-15T04:15:13;12.20;;;7.83;;
9712;SDS011;4895;50.926;6.870;2022-11-15T04:17:50;11.57;;;7.70;;
9712;SDS011;4895;50.926;6.870;2022-11-15T04:23:01;12.60;;;7.50;;
9712;SDS011;4895;50.926;6.870;2022-11-15T04:25:48;16.80;;;8.30;;
9712;SDS011;4895;50.926;6.870;2022-11-15T04:28:15;11.70;;;8.50;;
9712;SDS011;4895;50.926;6.870;2022-11-15T04:30:40;14.13;;;7.70;;
9712;SDS011;4895;50.926;6.870;2022-11-15T04:33:06;15.20;;;8.83;;
9712;SDS011;4895;50.926;6.870;2022-11-15T04:35:31;15.10;;;9.00;;
9712;SDS011;4895;50.926;6.870;2022-11-15T04:37:57;12.63;;;7.73;;
9712;SDS011;4895;50.926;6.870;2022-11-15T04:40:22;12.60;;;7.97;;
9712;SDS011;4895;50.926;6.870;2022-11-15T04:42:48;12.97;;;7.93;;
9712;SDS011;4895;50.926;6.870;2022-11-15T04:45:13;11.03;;;8.30;;
9712;SDS011;4895;50.926;6.870;2022-11-15T04:47:39;11.73;;;8.03;;
9712;SDS011;4895;50.926;6.870;2022-11-15T04:50:04;12.20;;;8.70;;
9712;SDS011;4895;50.926;6.870;2022-11-15T04:52:30;11.90;;;8.27;;
9712;SDS011;4895;50.926;6.870;2022-11-15T04:54:55;11.50;;;7.73;;
9712;SDS011;4895;50.926;6.870;2022-11-15T04:57:21;17.50;;;8.57;;
9712;SDS011;4895;50.926;6.870;2022-11-15T04:59:46;13.80;;;8.20;;
9712;SDS011;4895;50.926;6.870;2022-11-15T05:02:11;12.50;;;8.73;;
9712;SDS011;4895;50.926;6.870;2022-11-15T05:04:37;13.40;;;8.67;;
9712;SDS011;4895;50.926;6.870;2022-11-15T05:07:02;11.10;;;8.67;;
9712;SDS011;4895;50.926;6.870;2022-11-15T05:09:29;12.53;;;8.60;;
9712;SDS011;4895;50.926;6.870;2022-11-15T05:11:54;11.57;;;8.43;;
9712;SDS011;4895;50.926;6.870;2022-11-15T05:14:19;10.30;;;8.33;;
9712;SDS011;4895;50.926;6.870;2022-11-15T05:16:45;12.80;;;7.43;;
9712;SDS011;4895;50.926;6.870;2022-11-15T05:19:10;10.90;;;7.10;;
9712;SDS011;4895;50.926;6.870;2022-11-15T05:21:35;12.03;;;7.70;;
9712;SDS011;4895;50.926;6.870;2022-11-15T05:24:01;14.60;;;7.20;;
9712;SDS011;4895;50.926;6.870;2022-11-15T05:26:27;8.60;;;7.17;;
9712;SDS011;4895;50.926;6.870;2022-11-15T05:28:56;10.27;;;7.00;;
9712;SDS011;4895;50.926;6.870;2022-11-15T05:31:23;10.70;;;6.83;;
9712;SDS011;4895;50.926;6.870;2022-11-15T05:33:48;10.83;;;7.03;;
9712;SDS011;4895;50.926;6.870;2022-11-15T05:36:17;9.93;;;7.30;;
9712;SDS011;4895;50.926;6.870;2022-11-15T05:38:46;8.57;;;6.70;;
9712;SDS011;4895;50.926;6.870;2022-11-15T05:41:12;9.67;;;7.00;;
9712;SDS011;4895;50.926;6.870;2022-11-15T05:43:38;9.80;;;7.23;;
9712;SDS011;4895;50.926;6.870;2022-11-15T05:46:04;10.60;;;7.20;;
9712;SDS011;4895;50.926;6.870;2022-11-15T05:48:30;9.70;;;6.67;;
9712;SDS011;4895;50.926;6.870;2022-11-15T05:50:56;11.40;;;7.30;;
9712;SDS011;4895;50.926;6.870;2022-11-15T05:53:21;9.40;;;7.50;;
9712;SDS011;4895;50.926;6.870;2022-11-15T05:55:48;11.13;;;6.80;;
9712;SDS011;4895;50.926;6.870;2022-11-15T05:58:13;11.00;;;6.93;;
9712;SDS011;4895;50.926;6.870;2022-11-15T06:00:39;9.40;;;6.23;;
9712;SDS011;4895;50.926;6.870;2022-11-15T06:03:04;10.63;;;6.17;;
9712;SDS011;4895;50.926;6.870;2022-11-15T06:05:30;10.10;;;5.50;;
9712;SDS011;4895;50.926;6.870;2022-11-15T06:07:58;6.83;;;4.83;;
9712;SDS011;4895;50.926;6.870;2022-11-15T06:10:24;7.50;;;5.13;;
9712;SDS011;4895;50.926;6.870;2022-11-15T06:13:02;7.83;;;5.23;;
9712;SDS011;4895;50.926;6.870;2022-11-15T06:15:29;7.13;;;4.87;;
9712;SDS011;4895;50.926;6.870;2022-11-15T06:17:57;6.43;;;4.13;;
9712;SDS011;4895;50.926;6.870;2022-11-15T06:20:23;8.47;;;5.40;;
9712;SDS011;4895;50.926;6.870;2022-11-15T06:22:49;7.23;;;5.37;;
9712;SDS011;4895;50.926;6.870;2022-11-15T06:25:14;6.80;;;5.37;;
9712;SDS011;4895;50.926;6.870;2022-11-15T06:27:40;10.17;;;5.50;;
9712;SDS011;4895;50.926;6.870;2022-11-15T06:30:05;7.13;;;5.10;;
9712;SDS011;4895;50.926;6.870;2022-11-15T06:32:31;7.40;;;5.20;;
9712;SDS011;4895;50.926;6.870;2022-11-15T06:34:56;9.40;;;5.30;;
9712;SDS011;4895;50.926;6.870;2022-11-15T06:37:21;5.77;;;3.97;;
9712;SDS011;4895;50.926;6.870;2022-11-15T06:39:47;7.13;;;5.37;;
9712;SDS011;4895;50.926;6.870;2022-11-15T06:42:12;6.03;;;4.33;;
9712;SDS011;4895;50.926;6.870;2022-11-15T06:44:37;7.30;;;4.20;;
9712;SDS011;4895;50.926;6.870;2022-11-15T06:47:03;5.37;;;3.67;;
9712;SDS011;4895;50.926;6.870;2022-11-15T06:49:28;8.60;;;4.20;;
9712;SDS011;4895;50.926;6.870;2022-11-15T06:51:53;7.10;;;3.30;;
9712;SDS011;4895;50.926;6.870;2022-11-15T06:54:19;8.20;;;4.17;;
9712;SDS011;4895;50.926;6.870;2022-11-15T06:56:45;7.40;;;3.90;;
9712;SDS011;4895;50.926;6.870;2022-11-15T06:59:11;7.60;;;4.30;;
9712;SDS011;4895;50.926;6.870;2022-11-15T07:01:36;7.27;;;4.57;;
9712;SDS011;4895;50.926;6.870;2022-11-15T07:04:01;7.87;;;3.30;;
9712;SDS011;4895;50.926;6.870;2022-11-15T07:06:27;5.80;;;3.60;;
9712;SDS011;4895;50.926;6.870;2022-11-15T07:08:52;6.10;;;3.33;;
9712;SDS011;4895;50.926;6.870;2022-11-15T07:11:17;5.13;;;3.30;;
9712;SDS011;4895;50.926;6.870;2022-11-15T07:13:43;8.20;;;4.20;;
9712;SDS011;4895;50.926;6.870;2022-11-15T07:16:09;6.23;;;3.73;;
9712;SDS011;4895;50.926;6.870;2022-11-15T07:18:35;5.37;;;3.53;;
9712;SDS011;4895;50.926;6.870;2022-11-15T07:21:05;7.23;;;4.50;;
9712;SDS011;4895;50.926;6.870;2022-11-15T07:23:33;8.10;;;4.47;;
9712;SDS011;4895;50.926;6.870;2022-11-15T07:26:01;7.37;;;4.80;;
9712;SDS011;4895;50.926;6.870;2022-11-15T07:28:26;7.00;;;4.40;;
9712;SDS011;4895;50.926;6.870;2022-11-15T07:30:52;7.10;;;4.30;;
9712;SDS011;4895;50.926;6.870;2022-11-15T07:33:17;6.10;;;3.63;;
9712;SDS011;4895;50.926;6.870;2022-11-15T07:35:42;6.10;;;4.20;;
9712;SDS011;4895;50.926;6.870;2022-11-15T07:38:08;7.20;;;4.13;;
9712;SDS011;4895;50.926;6.870;2022-11-15T07:40:33;8.73;;;4.13;;
9712;SDS011;4895;50.926;6.870;2022-11-15T07:42:59;7.57;;;3.80;;
9712;SDS011;4895;50.926;6.870;2022-11-15T07:45:25;8.40;;;4.10;;
9712;SDS011;4895;50.926;6.870;2022-11-15T07:47:51;7.07;;;4.17;;
9712;SDS011;4895;50.926;6.870;2022-11-15T07:50:17;8.40;;;4.90;;
9712;SDS011;4895;50.926;6.870;2022-11-15T07:52:42;7.80;;;4.43;;
9712;SDS011;4895;50.926;6.870;2022-11-15T07:55:08;7.20;;;4.00;;
9712;SDS011;4895;50.926;6.870;2022-11-15T07:57:34;7.07;;;3.67;;
9712;SDS011;4895;50.926;6.870;2022-11-15T07:59:59;5.40;;;3.40;;
9712;SDS011;4895;50.926;6.870;2022-11-15T08:02:25;5.90;;;3.30;;
9712;SDS011;4895;50.926;6.870;2022-11-15T08:04:50;6.10;;;3.17;;
9712;SDS011;4895;50.926;6.870;2022-11-15T08:07:15;5.57;;;2.90;;
9712;SDS011;4895;50.926;6.870;2022-11-15T08:09:41;6.83;;;3.20;;
9712;SDS011;4895;50.926;6.870;2022-11-15T08:12:06;4.70;;;3.30;;
9712;SDS011;4895;50.926;6.870;2022-11-15T08:14:31;5.70;;;3.60;;
9712;SDS011;4895;50.926;6.870;2022-11-15T08:16:57;5.67;;;3.47;;
9712;SDS011;4895;50.926;6.870;2022-11-15T08:19:22;7.17;;;3.47;;
9712;SDS011;4895;50.926;6.870;2022-11-15T08:21:47;4.90;;;3.50;;
9712;SDS011;4895;50.926;6.870;2022-11-15T08:24:13;6.40;;;3.60;;
9712;SDS011;4895;50.926;6.870;2022-11-15T08:26:38;6.50;;;2.93;;
9712;SDS011;4895;50.926;6.870;2022-11-15T08:29:04;3.43;;;2.50;;
9712;SDS011;4895;50.926;6.870;2022-11-15T08:31:30;4.80;;;2.80;;
9712;SDS011;4895;50.926;6.870;2022-11-15T08:33:55;5.70;;;2.47;;
9712;SDS011;4895;50.926;6.870;2022-11-15T08:36:21;7.07;;;2.93;;
9712;SDS011;4895;50.926;6.870;2022-11-15T08:38:46;5.90;;;3.03;;
9712;SDS011;4895;50.926;6.870;2022-11-15T08:41:17;4.20;;;2.57;;
9712;SDS011;4895;50.926;6.870;2022-11-15T08:43:48;6.13;;;2.80;;
9712;SDS011;4895;50.926;6.870;2022-11-15T08:46:14;7.60;;;2.83;;
9712;SDS011;4895;50.926;6.870;2022-11-15T08:48:39;5.30;;;2.87;;
9712;SDS011;4895;50.926;6.870;2022-11-15T08:51:04;3.90;;;2.33;;
9712;SDS011;4895;50.926;6.870;2022-11-15T08:53:30;5.90;;;3.50;;
9712;SDS011;4895;50.926;6.870;2022-11-15T08:55:56;3.53;;;2.50;;
9712;SDS011;4895;50.926;6.870;2022-11-15T08:58:21;5.30;;;2.53;;
9712;SDS011;4895;50.926;6.870;2022-11-15T09:00:46;5.40;;;2.40;;
9712;SDS011;4895;50.926;6.870;2022-11-15T09:03:11;5.57;;;2.67;;
9712;SDS011;4895;50.926;6.870;2022-11-15T09:05:37;5.43;;;2.50;;
9712;SDS011;4895;50.926;6.870;2022-11-15T09:08:03;3.60;;;2.37;;
9712;SDS011;4895;50.926;6.870;2022-11-15T09:10:28;5.83;;;2.47;;
9712;SDS011;4895;50.926;6.870;2022-11-15T09:12:56;7.50;;;2.50;;
9712;SDS011;4895;50.926;6.870;2022-11-15T09:15:22;6.80;;;2.70;;
9712;SDS011;4895;50.926;6.870;2022-11-15T09:17:47;4.43;;;1.87;;
9712;SDS011;4895;50.926;6.870;2022-11-15T09:20:12;3.67;;;2.10;;
9712;SDS011;4895;50.926;6.870;2022-11-15T09:22:38;3.47;;;1.93;;
9712;SDS011;4895;50.926;6.870;2022-11-15T09:25:04;4.03;;;2.00;;
9712;SDS011;4895;50.926;6.870;2022-11-15T09:27:30;5.40;;;2.17;;
9712;SDS011;4895;50.926;6.870;2022-11-15T09:29:55;4.47;;;2.27;;
9712;SDS011;4895;50.926;6.870;2022-11-15T09:32:21;3.30;;;1.47;;
9712;SDS011;4895;50.926;6.870;2022-11-15T09:34:48;13.63;;;2.17;;
9712;SDS011;4895;50.926;6.870;2022-11-15T09:37:14;6.37;;;2.00;;
9712;SDS011;4895;50.926;6.870;2022-11-15T09:39:39;10.80;;;2.03;;
9712;SDS011;4895;50.926;6.870;2022-11-15T09:42:12;6.27;;;1.90;;
9712;SDS011;4895;50.926;6.870;2022-11-15T09:50:39;3.10;;;1.93;;
9712;SDS011;4895;50.926;6.870;2022-11-15T09:53:12;6.97;;;2.33;;
9712;SDS011;4895;50.926;6.870;2022-11-15T09:56:13;13.23;;;1.90;;
9712;SDS011;4895;50.926;6.870;2022-11-15T10:01:33;2.30;;;1.60;;
9712;SDS011;4895;50.926;6.870;2022-11-15T10:04:06;7.13;;;1.53;;
9712;SDS011;4895;50.926;6.870;2022-11-15T10:06:32;2.73;;;1.30;;
9712;SDS011;4895;50.926;6.870;2022-11-15T10:09:01;3.17;;;1.17;;
9712;SDS011;4895;50.926;6.870;2022-11-15T10:11:31;4.10;;;1.20;;
9712;SDS011;4895;50.926;6.870;2022-11-15T10:14:00;2.93;;;1.40;;
9712;SDS011;4895;50.926;6.870;2022-11-15T10:19:01;4.50;;;1.60;;
9712;SDS011;4895;50.926;6.870;2022-11-15T10:24:37;5.57;;;1.80;;
9712;SDS011;4895;50.926;6.870;2022-11-15T10:27:14;8.80;;;1.60;;
9712;SDS011;4895;50.926;6.870;2022-11-15T10:29:44;7.20;;;1.30;;
9712;SDS011;4895;50.926;6.870;2022-11-15T10:32:11;4.57;;;1.60;;
9712;SDS011;4895;50.926;6.870;2022-11-15T10:34:37;3.40;;;1.40;;
9712;SDS011;4895;50.926;6.870;2022-11-15T10:37:03;4.93;;;1.43;;
9712;SDS011;4895;50.926;6.870;2022-11-15T10:39:28;4.10;;;1.37;;
9712;SDS011;4895;50.926;6.870;2022-11-15T10:41:53;2.70;;;1.00;;
9712;SDS011;4895;50.926;6.870;2022-11-15T10:44:23;3.13;;;1.40;;
9712;SDS011;4895;50.926;6.870;2022-11-15T10:49:22;3.83;;;1.10;;
9712;SDS011;4895;50.926;6.870;2022-11-15T10:54:21;2.20;;;1.17;;
9712;SDS011;4895;50.926;6.870;2022-11-15T10:56:51;4.13;;;1.10;;
9712;SDS011;4895;50.926;6.870;2022-11-15T10:59:19;2.63;;;1.00;;
9712;SDS011;4895;50.926;6.870;2022-11-15T11:01:55;4.10;;;1.20;;
9712;SDS011;4895;50.926;6.870;2022-11-15T11:04:21;2.80;;;1.37;;
9712;SDS011;4895;50.926;6.870;2022-11-15T11:06:54;3.30;;;1.20;;
9712;SDS011;4895;50.926;6.870;2022-11-15T11:11:54;1.50;;;0.93;;
9712;SDS011;4895;50.926;6.870;2022-11-15T11:14:33;4.07;;;1.00;;
9712;SDS011;4895;50.926;6.870;2022-11-15T11:49:10;5.53;;;1.37;;
9712;SDS011;4895;50.926;6.870;2022-11-15T11:51:55;3.27;;;1.57;;
9712;SDS011;4895;50.926;6.870;2022-11-15T11:55:34;2.47;;;0.90;;
9712;SDS011;4895;50.926;6.870;2022-11-15T11:57:54;7.63;;;1.40;;
9712;SDS011;4895;50.926;6.870;2022-11-15T12:00:43;2.80;;;1.23;;
9712;SDS011;4895;50.926;6.870;2022-11-15T12:05:59;1.93;;;0.90;;
9712;SDS011;4895;50.926;6.870;2022-11-15T12:08:32;5.53;;;1.23;;
9712;SDS011;4895;50.926;6.870;2022-11-15T12:13:30;3.50;;;1.17;;
9712;SDS011;4895;50.926;6.870;2022-11-15T12:16:01;5.13;;;1.27;;
9712;SDS011;4895;50.926;6.870;2022-11-15T12:18:42;7.73;;;1.40;;
9712;SDS011;4895;50.926;6.870;2022-11-15T12:21:24;7.20;;;1.57;;
9712;SDS011;4895;50.926;6.870;2022-11-15T12:23:54;7.23;;;1.30;;
9712;SDS011;4895;50.926;6.870;2022-11-15T12:26:25;12.10;;;1.77;;
9712;SDS011;4895;50.926;6.870;2022-11-15T12:29:09;3.73;;;1.53;;
9712;SDS011;4895;50.926;6.870;2022-11-15T12:31:41;3.90;;;1.40;;
9712;SDS011;4895;50.926;6.870;2022-11-15T12:36:46;2.60;;;1.40;;
9712;SDS011;4895;50.926;6.870;2022-11-15T12:39:12;3.67;;;1.30;;
9712;SDS011;4895;50.926;6.870;2022-11-15T12:41:39;6.30;;;1.83;;
9712;SDS011;4895;50.926;6.870;2022-11-15T12:44:11;8.83;;;1.97;;
9712;SDS011;4895;50.926;6.870;2022-11-15T13:02:34;4.00;;;1.20;;
9712;SDS011;4895;50.926;6.870;2022-11-15T13:25:19;4.70;;;1.87;;
9712;SDS011;4895;50.926;6.870;2022-11-15T13:27:47;4.60;;;1.87;;
9712;SDS011;4895;50.926;6.870;2022-11-15T13:30:24;4.40;;;2.10;;
9712;SDS011;4895;50.926;6.870;2022-11-15T13:32:51;10.53;;;2.67;;
9712;SDS011;4895;50.926;6.870;2022-11-15T13:35:22;4.60;;;2.70;;
9712;SDS011;4895;50.926;6.870;2022-11-15T13:37:50;7.83;;;2.53;;
9712;SDS011;4895;50.926;6.870;2022-11-15T13:42:47;7.20;;;2.00;;
9712;SDS011;4895;50.926;6.870;2022-11-15T13:45:13;8.00;;;2.53;;
9712;SDS011;4895;50.926;6.870;2022-11-15T13:47:40;6.40;;;2.40;;
9712;SDS011;4895;50.926;6.870;2022-11-15T13:50:05;3.73;;;2.00;;
9712;SDS011;4895;50.926;6.870;2022-11-15T13:52:35;8.10;;;2.40;;
9712;SDS011;4895;50.926;6.870;2022-11-15T13:55:08;7.50;;;2.90;;
9712;SDS011;4895;50.926;6.870;2022-11-15T14:06:04;6.67;;;2.87;;
9712;SDS011;4895;50.926;6.870;2022-11-15T14:08:33;4.17;;;2.63;;
9712;SDS011;4895;50.926;6.870;2022-11-15T14:11:05;3.23;;;2.33;;
9712;SDS011;4895;50.926;6.870;2022-11-15T14:13:33;6.57;;;3.03;;
9712;SDS011;4895;50.926;6.870;2022-11-15T14:18:45;5.83;;;2.50;;
9712;SDS011;4895;50.926;6.870;2022-11-15T14:21:19;4.67;;;2.60;;
9712;SDS011;4895;50.926;6.870;2022-11-15T14:23:45;6.80;;;3.17;;
9712;SDS011;4895;50.926;6.870;2022-11-15T14:28:55;3.90;;;2.60;;
9712;SDS011;4895;50.926;6.870;2022-11-15T14:31:21;10.83;;;3.00;;
9712;SDS011;4895;50.926;6.870;2022-11-15T14:33:47;5.53;;;2.50;;
9712;SDS011;4895;50.926;6.870;2022-11-15T14:36:13;9.03;;;3.20;;
9712;SDS011;4895;50.926;6.870;2022-11-15T14:38:43;6.87;;;3.30;;
9712;SDS011;4895;50.926;6.870;2022-11-15T14:41:22;9.30;;;3.00;;
9712;SDS011;4895;50.926;6.870;2022-11-15T14:43:49;4.20;;;2.27;;
9712;SDS011;4895;50.926;6.870;2022-11-15T14:46:15;3.80;;;2.37;;
9712;SDS011;4895;50.926;6.870;2022-11-15T14:48:41;6.83;;;3.20;;
9712;SDS011;4895;50.926;6.870;2022-11-15T14:51:11;4.30;;;2.63;;
9712;SDS011;4895;50.926;6.870;2022-11-15T14:53:41;5.20;;;2.43;;
9712;SDS011;4895;50.926;6.870;2022-11-15T14:56:07;5.83;;;2.60;;
9712;SDS011;4895;50.926;6.870;2022-11-15T14:58:33;7.10;;;2.57;;
9712;SDS011;4895;50.926;6.870;2022-11-15T15:00:58;4.73;;;2.43;;
9712;SDS011;4895;50.926;6.870;2022-11-15T15:03:25;7.20;;;2.90;;
9712;SDS011;4895;50.926;6.870;2022-11-15T15:05:50;6.93;;;3.10;;
9712;SDS011;4895;50.926;6.870;2022-11-15T15:08:16;5.10;;;3.03;;
9712;SDS011;4895;50.926;6.870;2022-11-15T15:10:42;5.83;;;2.77;;
9712;SDS011;4895;50.926;6.870;2022-11-15T15:13:15;4.30;;;2.40;;
9712;SDS011;4895;50.926;6.870;2022-11-15T15:15:47;11.10;;;2.70;;
9712;SDS011;4895;50.926;6.870;2022-11-15T15:18:13;6.17;;;3.00;;
9712;SDS011;4895;50.926;6.870;2022-11-15T15:20:40;5.20;;;2.70;;
9712;SDS011;4895;50.926;6.870;2022-11-15T15:23:17;11.40;;;2.93;;
9712;SDS011;4895;50.926;6.870;2022-11-15T15:25:43;5.10;;;2.50;;
9712;SDS011;4895;50.926;6.870;2022-11-15T15:28:10;4.00;;;2.40;;
9712;SDS011;4895;50.926;6.870;2022-11-15T15:30:36;4.70;;;2.20;;
9712;SDS011;4895;50.926;6.870;2022-11-15T15:33:01;6.13;;;2.40;;
9712;SDS011;4895;50.926;6.870;2022-11-15T15:35:29;3.10;;;2.03;;
9712;SDS011;4895;50.926;6.870;2022-11-15T15:37:56;5.70;;;2.43;;
9712;SDS011;4895;50.926;6.870;2022-11-15T15:40:24;8.77;;;2.37;;
9712;SDS011;4895;50.926;6.870;2022-11-15T15:42:51;3.90;;;2.23;;
9712;SDS011;4895;50.926;6.870;2022-11-15T15:45:17;9.93;;;2.47;;
9712;SDS011;4895;50.926;6.870;2022-11-15T15:47:42;5.03;;;2.50;;
9712;SDS011;4895;50.926;6.870;2022-11-15T15:52:42;7.93;;;2.33;;
9712;SDS011;4895;50.926;6.870;2022-11-15T15:55:08;3.63;;;1.90;;
9712;SDS011;4895;50.926;6.870;2022-11-15T15:57:33;3.50;;;1.77;;
9712;SDS011;4895;50.926;6.870;2022-11-15T15:59:59;3.10;;;1.83;;
9712;SDS011;4895;50.926;6.870;2022-11-15T16:02:24;4.00;;;1.80;;
9712;SDS011;4895;50.926;6.870;2022-11-15T16:04:49;3.73;;;1.87;;
9712;SDS011;4895;50.926;6.870;2022-11-15T16:07:20;3.80;;;2.03;;
9712;SDS011;4895;50.926;6.870;2022-11-15T16:09:48;3.40;;;1.90;;
9712;SDS011;4895;50.926;6.870;2022-11-15T16:12:34;3.30;;;1.80;;
9712;SDS011;4895;50.926;6.870;2022-11-15T16:15:00;3.67;;;2.30;;
9712;SDS011;4895;50.926;6.870;2022-11-15T16:17:27;4.47;;;2.13;;
9712;SDS011;4895;50.926;6.870;2022-11-15T16:19:55;4.63;;;2.20;;
9712;SDS011;4895;50.926;6.870;2022-11-15T16:22:20;8.63;;;2.20;;
9712;SDS011;4895;50.926;6.870;2022-11-15T16:24:46;4.73;;;2.07;;
9712;SDS011;4895;50.926;6.870;2022-11-15T16:27:18;4.03;;;2.20;;
9712;SDS011;4895;50.926;6.870;2022-11-15T16:29:45;4.23;;;2.50;;
9712;SDS011;4895;50.926;6.870;2022-11-15T16:32:11;3.10;;;2.10;;
9712;SDS011;4895;50.926;6.870;2022-11-15T16:34:36;3.63;;;2.20;;
9712;SDS011;4895;50.926;6.870;2022-11-15T16:37:02;4.10;;;2.07;;
9712;SDS011;4895;50.926;6.870;2022-11-15T16:39:27;3.33;;;2.27;;
9712;SDS011;4895;50.926;6.870;2022-11-15T16:41:55;8.80;;;2.50;;
9712;SDS011;4895;50.926;6.870;2022-11-15T16:44:21;5.20;;;1.93;;
9712;SDS011;4895;50.926;6.870;2022-11-15T16:46:47;6.60;;;2.20;;
9712;SDS011;4895;50.926;6.870;2022-11-15T16:49:16;4.83;;;2.33;;
9712;SDS011;4895;50.926;6.870;2022-11-15T16:51:42;3.60;;;2.10;;
9712;SDS011;4895;50.926;6.870;2022-11-15T16:54:10;3.80;;;2.50;;
9712;SDS011;4895;50.926;6.870;2022-11-15T16:56:36;3.93;;;2.00;;
9712;SDS011;4895;50.926;6.870;2022-11-15T16:59:02;3.23;;;2.17;;
9712;SDS011;4895;50.926;6.870;2022-11-15T17:01:32;5.40;;;2.30;;
9712;SDS011;4895;50.926;6.870;2022-11-15T17:03:59;3.83;;;2.20;;
9712;SDS011;4895;50.926;6.870;2022-11-15T17:06:40;7.63;;;2.63;;
9712;SDS011;4895;50.926;6.870;2022-11-15T17:11:40;3.60;;;2.27;;
9712;SDS011;4895;50.926;6.870;2022-11-15T17:14:05;5.73;;;1.90;;
9712;SDS011;4895;50.926;6.870;2022-11-15T17:16:31;3.87;;;2.20;;
9712;SDS011;4895;50.926;6.870;2022-11-15T17:18:58;7.47;;;2.50;;
9712;SDS011;4895;50.926;6.870;2022-11-15T17:21:23;2.87;;;1.90;;
9712;SDS011;4895;50.926;6.870;2022-11-15T17:23:51;6.67;;;2.20;;
9712;SDS011;4895;50.926;6.870;2022-11-15T17:26:17;7.50;;;2.23;;
9712;SDS011;4895;50.926;6.870;2022-11-15T17:28:42;7.93;;;2.83;;
9712;SDS011;4895;50.926;6.870;2022-11-15T17:31:08;6.20;;;2.53;;
9712;SDS011;4895;50.926;6.870;2022-11-15T17:33:35;3.20;;;2.10;;
9712;SDS011;4895;50.926;6.870;2022-11-15T17:36:02;6.07;;;2.50;;
9712;SDS011;4895;50.926;6.870;2022-11-15T17:38:28;3.93;;;2.77;;
9712;SDS011;4895;50.926;6.870;2022-11-15T17:43:30;4.00;;;2.93;;
9712;SDS011;4895;50.926;6.870;2022-11-15T17:45:56;4.73;;;2.60;;